sensor_id;sensor_type;location;lat;lon;timestamp;pressure;altitude;pressure_sealevel;temperature;humidity
11001;BME280;5553;48.506;8.870;2023-03-13T00:01:16;95960.16;;;7.24;100.00
11001;BME280;5553;48.506;8.870;2023-03-13T00:03:44;95964.25;;;7.11;100.00
11001;BME280;5553;48.506;8.870;2023-03-13T00:06:13;95967.94;;;7.32;100.00
11001;BME280;5553;48.506;8.870;2023-03-13T00:08:44;95961.09;;;7.52;100.00
11001;BME280;5553;48.506;8.870;2023-03-13T00:11:14;95957.97;;;7.64;100.00
11001;BME280;5553;48.506;8.870;2023-03-13T00:13:43;95963.09;;;7.50;100.00
11001;BME280;5553;48.506;8.870;2023-03-13T00:16:13;95963.09;;;7.72;100.00
11001;BME280;5553;48.506;8.870;2023-03-13T00:18:44;95958.50;;;7.74;100.00
11001;BME280;5553;48.506;8.870;2023-03-13T00:21:14;95952.88;;;7.77;100.00
11001;BME280;5553;48.506;8.870;2023-03-13T00:23:46;95955.34;;;7.64;100.00
11001;BME280;5553;48.506;8.870;2023-03-13T00:26:16;95954.19;;;7.66;100.00
11001;BME280;5553;48.506;8.870;2023-03-13T00:28:45;95959.59;;;7.65;100.00
11001;BME280;5553;48.506;8.870;2023-03-13T00:31:16;95958.59;;;7.66;100.00
11001;BME280;5553;48.506;8.870;2023-03-13T00:33:46;95958.50;;;7.74;100.00
11001;BME280;5553;48.506;8.870;2023-03-13T00:36:17;95959.22;;;7.68;100.00
11001;BME280;5553;48.506;8.870;2023-03-13T00:38:49;95956.22;;;7.71;100.00
11001;BME280;5553;48.506;8.870;2023-03-13T00:41:18;95951.78;;;7.71;100.00
11001;BME280;5553;48.506;8.870;2023-03-13T00:43:47;95945.72;;;7.71;100.00
11001;BME280;5553;48.506;8.870;2023-03-13T00:46:17;95942.84;;;7.66;100.00
11001;BME280;5553;48.506;8.870;2023-03-13T00:48:46;95951.34;;;7.46;100.00
11001;BME280;5553;48.506;8.870;2023-03-13T00:51:16;95952.22;;;7.53;100.00
11001;BME280;5553;48.506;8.870;2023-03-13T00:53:44;95947.97;;;7.52;100.00
11001;BME280;5553;48.506;8.870;2023-03-13T00:56:16;95949.69;;;7.45;100.00
11001;BME280;5553;48.506;8.870;2023-03-13T00:58:46;95942.81;;;7.44;100.00
11001;BME280;5553;48.506;8.870;2023-03-13T01:01:16;95946.44;;;7.43;100.00
11001;BME280;5553;48.506;8.870;2023-03-13T01:03:46;95945.03;;;7.26;100.00
11001;BME280;5553;48.506;8.870;2023-03-13T01:06:17;95943.44;;;7.10;100.00
11001;BME280;5553;48.506;8.870;2023-03-13T01:08:46;95937.50;;;7.01;100.00
11001;BME280;5553;48.506;8.870;2023-03-13T01:11:19;95943.09;;;6.98;100.00
11001;BME280;5553;48.506;8.870;2023-03-13T01:13:48;95945.59;;;7.06;100.00
11001;BME280;5553;48.506;8.870;2023-03-13T01:16:18;95939.91;;;7.03;100.00
11001;BME280;5553;48.506;8.870;2023-03-13T01:18:49;95939.47;;;6.99;100.00
11001;BME280;5553;48.506;8.870;2023-03-13T01:21:19;95933.06;;;7.02;100.00
11001;BME280;5553;48.506;8.870;2023-03-13T01:23:49;95933.13;;;7.08;100.00
11001;BME280;5553;48.506;8.870;2023-03-13T01:26:20;95923.84;;;7.42;100.00
11001;BME280;5553;48.506;8.870;2023-03-13T01:28:49;95923.25;;;7.25;100.00
11001;BME280;5553;48.506;8.870;2023-03-13T01:31:19;95906.44;;;7.41;100.00
11001;BME280;5553;48.506;8.870;2023-03-13T01:33:50;95903.22;;;7.82;100.00
11001;BME280;5553;48.506;8.870;2023-03-13T01:36:18;95896.72;;;7.56;100.00
11001;BME280;5553;48.506;8.870;2023-03-13T01:38:47;95894.34;;;7.83;100.00
11001;BME280;5553;48.506;8.870;2023-03-13T01:41:20;95882.50;;;7.72;100.00
11001;BME280;5553;48.506;8.870;2023-03-13T01:43:49;95889.84;;;7.77;100.00
11001;BME280;5553;48.506;8.870;2023-03-13T01:46:19;95871.53;;;7.83;100.00
11001;BME280;5553;48.506;8.870;2023-03-13T01:48:51;95869.50;;;7.86;100.00
11001;BME280;5553;48.506;8.870;2023-03-13T01:51:23;95858.63;;;8.17;100.00
11001;BME280;5553;48.506;8.870;2023-03-13T01:53:56;95861.53;;;8.28;100.00
11001;BME280;5553;48.506;8.870;2023-03-13T01:56:33;95850.16;;;8.21;100.00
11001;BME280;5553;48.506;8.870;2023-03-13T01:59:04;95857.50;;;8.32;100.00
11001;BME280;5553;48.506;8.870;2023-03-13T02:01:34;95856.44;;;8.48;100.00
11001;BME280;5553;48.506;8.870;2023-03-13T02:04:03;95854.69;;;8.34;100.00
11001;BME280;5553;48.506;8.870;2023-03-13T02:06:35;95854.81;;;8.54;100.00
11001;BME280;5553;48.506;8.870;2023-03-13T02:09:08;95850.25;;;8.35;100.00
11001;BME280;5553;48.506;8.870;2023-03-13T02:11:47;95850.38;;;8.54;100.00
11001;BME280;5553;48.506;8.870;2023-03-13T02:14:19;95841.88;;;8.52;100.00
11001;BME280;5553;48.506;8.870;2023-03-13T02:16:49;95852.63;;;8.29;100.00
11001;BME280;5553;48.506;8.870;2023-03-13T02:19:29;95853.56;;;8.43;100.00
11001;BME280;5553;48.506;8.870;2023-03-13T02:22:05;95855.66;;;8.26;100.00
11001;BME280;5553;48.506;8.870;2023-03-13T02:24:42;95852.47;;;8.31;100.00
11001;BME280;5553;48.506;8.870;2023-03-13T02:27:16;95850.72;;;8.38;100.00
11001;BME280;5553;48.506;8.870;2023-03-13T02:29:44;95847.16;;;8.52;100.00
11001;BME280;5553;48.506;8.870;2023-03-13T02:32:14;95839.25;;;8.52;100.00
11001;BME280;5553;48.506;8.870;2023-03-13T02:34:43;95826.50;;;8.49;100.00
11001;BME280;5553;48.506;8.870;2023-03-13T02:37:15;95828.47;;;8.41;100.00
11001;BME280;5553;48.506;8.870;2023-03-13T02:39:46;95837.38;;;8.40;100.00
11001;BME280;5553;48.506;8.870;2023-03-13T02:42:21;95826.78;;;8.33;100.00
11001;BME280;5553;48.506;8.870;2023-03-13T02:44:50;95809.81;;;8.36;100.00
11001;BME280;5553;48.506;8.870;2023-03-13T02:47:19;95816.91;;;8.35;100.00
11001;BME280;5553;48.506;8.870;2023-03-13T02:49:48;95807.25;;;8.42;100.00
11001;BME280;5553;48.506;8.870;2023-03-13T02:52:20;95813.03;;;8.31;100.00
11001;BME280;5553;48.506;8.870;2023-03-13T02:54:52;95807.88;;;8.16;100.00
11001;BME280;5553;48.506;8.870;2023-03-13T02:57:25;95815.59;;;8.18;100.00
11001;BME280;5553;48.506;8.870;2023-03-13T02:59:53;95818.97;;;8.12;100.00
11001;BME280;5553;48.506;8.870;2023-03-13T03:02:22;95811.69;;;8.07;100.00
11001;BME280;5553;48.506;8.870;2023-03-13T03:04:50;95808.94;;;8.22;100.00
11001;BME280;5553;48.506;8.870;2023-03-13T03:07:18;95798.13;;;8.03;100.00
11001;BME280;5553;48.506;8.870;2023-03-13T03:09:46;95801.19;;;8.07;100.00
11001;BME280;5553;48.506;8.870;2023-03-13T03:12:15;95790.28;;;8.17;100.00
11001;BME280;5553;48.506;8.870;2023-03-13T03:14:45;95781.63;;;8.23;100.00
11001;BME280;5553;48.506;8.870;2023-03-13T03:17:14;95780.66;;;8.24;100.00
11001;BME280;5553;48.506;8.870;2023-03-13T03:19:42;95774.66;;;8.91;100.00
11001;BME280;5553;48.506;8.870;2023-03-13T03:22:10;95761.72;;;8.90;100.00
11001;BME280;5553;48.506;8.870;2023-03-13T03:24:38;95769.03;;;9.08;100.00
11001;BME280;5553;48.506;8.870;2023-03-13T03:27:07;95767.00;;;8.96;100.00
11001;BME280;5553;48.506;8.870;2023-03-13T03:29:35;95771.88;;;9.06;100.00
11001;BME280;5553;48.506;8.870;2023-03-13T03:32:06;95788.47;;;9.07;100.00
11001;BME280;5553;48.506;8.870;2023-03-13T03:34:34;95783.22;;;9.07;100.00
11001;BME280;5553;48.506;8.870;2023-03-13T03:37:02;95781.38;;;9.07;100.00
11001;BME280;5553;48.506;8.870;2023-03-13T03:39:31;95782.56;;;8.91;100.00
11001;BME280;5553;48.506;8.870;2023-03-13T03:41:59;95780.34;;;9.01;100.00
11001;BME280;5553;48.506;8.870;2023-03-13T03:44:28;95776.94;;;9.14;100.00
11001;BME280;5553;48.506;8.870;2023-03-13T03:46:57;95773.28;;;9.09;100.00
11001;BME280;5553;48.506;8.870;2023-03-13T03:49:27;95768.03;;;9.22;100.00
11001;BME280;5553;48.506;8.870;2023-03-13T03:51:56;95765.25;;;9.37;100.00
11001;BME280;5553;48.506;8.870;2023-03-13T03:54:24;95762.00;;;9.41;100.00
11001;BME280;5553;48.506;8.870;2023-03-13T03:56:53;95763.41;;;9.31;100.00
11001;BME280;5553;48.506;8.870;2023-03-13T03:59:21;95759.56;;;9.27;100.00
11001;BME280;5553;48.506;8.870;2023-03-13T04:01:50;95760.78;;;9.44;100.00
11001;BME280;5553;48.506;8.870;2023-03-13T04:04:18;95756.72;;;9.28;100.00
11001;BME280;5553;48.506;8.870;2023-03-13T04:06:49;95758.75;;;9.39;100.00
11001;BME280;5553;48.506;8.870;2023-03-13T04:09:17;95752.66;;;9.32;100.00
11001;BME280;5553;48.506;8.870;2023-03-13T04:11:45;95770.66;;;9.15;100.00
11001;BME280;5553;48.506;8.870;2023-03-13T04:14:14;95771.47;;;9.16;100.00
11001;BME280;5553;48.506;8.870;2023-03-13T04:16:42;95776.53;;;9.11;100.00
11001;BME280;5553;48.506;8.870;2023-03-13T04:19:10;95772.47;;;9.01;100.00
11001;BME280;5553;48.506;8.870;2023-03-13T04:21:38;95773.28;;;9.09;100.00
11001;BME280;5553;48.506;8.870;2023-03-13T04:24:09;95766.41;;;9.14;100.00
11001;BME280;5553;48.506;8.870;2023-03-13T04:26:37;95771.88;;;9.19;100.00
11001;BME280;5553;48.506;8.870;2023-03-13T04:29:06;95775.34;;;9.13;100.00
11001;BME280;5553;48.506;8.870;2023-03-13T04:31:34;95776.13;;;9.07;100.00
11001;BME280;5553;48.506;8.870;2023-03-13T04:34:02;95758.69;;;8.93;100.00
11001;BME280;5553;48.506;8.870;2023-03-13T04:36:30;95763.16;;;8.92;100.00
11001;BME280;5553;48.506;8.870;2023-03-13T04:38:59;95766.78;;;8.91;100.00
11001;BME280;5553;48.506;8.870;2023-03-13T04:41:29;95764.75;;;8.93;100.00
11001;BME280;5553;48.506;8.870;2023-03-13T04:43:58;95769.63;;;8.96;100.00
11001;BME280;5553;48.506;8.870;2023-03-13T04:46:26;95768.63;;;8.97;100.00
11001;BME280;5553;48.506;8.870;2023-03-13T04:48:54;95769.41;;;8.91;100.00
11001;BME280;5553;48.506;8.870;2023-03-13T04:51:22;95774.91;;;9.03;100.00
11001;BME280;5553;48.506;8.870;2023-03-13T04:53:51;95763.97;;;8.99;100.00
11001;BME280;5553;48.506;8.870;2023-03-13T04:56:22;95757.91;;;9.06;100.00
11001;BME280;5553;48.506;8.870;2023-03-13T04:58:53;95766.41;;;9.01;100.00
11001;BME280;5553;48.506;8.870;2023-03-13T05:01:21;95768.00;;;8.95;100.00
11001;BME280;5553;48.506;8.870;2023-03-13T05:03:50;95759.91;;;8.97;100.00
11001;BME280;5553;48.506;8.870;2023-03-13T05:06:18;95757.06;;;8.98;100.00
11001;BME280;5553;48.506;8.870;2023-03-13T05:08:46;95755.47;;;8.97;100.00
11001;BME280;5553;48.506;8.870;2023-03-13T05:11:14;95756.91;;;9.07;100.00
11001;BME280;5553;48.506;8.870;2023-03-13T05:13:42;95764.78;;;9.07;100.00
11001;BME280;5553;48.506;8.870;2023-03-13T05:16:13;95775.09;;;9.01;100.00
11001;BME280;5553;48.506;8.870;2023-03-13T05:18:42;95776.94;;;9.08;100.00
11001;BME280;5553;48.506;8.870;2023-03-13T05:21:10;95771.66;;;9.08;100.00
11001;BME280;5553;48.506;8.870;2023-03-13T05:23:38;95759.53;;;9.07;100.00
11001;BME280;5553;48.506;8.870;2023-03-13T05:26:07;95773.69;;;9.12;100.00
11001;BME280;5553;48.506;8.870;2023-03-13T05:28:35;95771.47;;;9.09;100.00
11001;BME280;5553;48.506;8.870;2023-03-13T05:31:03;95766.19;;;9.09;100.00
11001;BME280;5553;48.506;8.870;2023-03-13T05:33:34;95764.00;;;9.19;100.00
11001;BME280;5553;48.506;8.870;2023-03-13T05:36:03;95764.00;;;9.33;100.00
11001;BME280;5553;48.506;8.870;2023-03-13T05:38:31;95754.88;;;9.22;100.00
11001;BME280;5553;48.506;8.870;2023-03-13T05:40:59;95757.53;;;9.35;100.00
11001;BME280;5553;48.506;8.870;2023-03-13T05:43:28;95747.00;;;9.35;100.00
11001;BME280;5553;48.506;8.870;2023-03-13T05:45:56;95760.97;;;9.42;100.00
11001;BME280;5553;48.506;8.870;2023-03-13T05:48:24;95752.66;;;9.32;100.00
11001;BME280;5553;48.506;8.870;2023-03-13T05:50:55;95750.66;;;9.41;100.00
11001;BME280;5553;48.506;8.870;2023-03-13T05:53:23;95753.47;;;9.39;100.00
11001;BME280;5553;48.506;8.870;2023-03-13T05:55:51;95755.94;;;9.61;100.00
11001;BME280;5553;48.506;8.870;2023-03-13T05:58:20;95737.28;;;9.42;100.00
11001;BME280;5553;48.506;8.870;2023-03-13T06:00:48;95723.31;;;9.55;100.00
11001;BME280;5553;48.506;8.870;2023-03-13T06:03:16;95733.63;;;9.50;100.00
11001;BME280;5553;48.506;8.870;2023-03-13T06:05:44;95735.47;;;9.49;100.00
11001;BME280;5553;48.506;8.870;2023-03-13T06:08:15;95725.53;;;9.65;100.00
11001;BME280;5553;48.506;8.870;2023-03-13T06:10:43;95727.56;;;9.49;100.00
11001;BME280;5553;48.506;8.870;2023-03-13T06:13:11;95732.41;;;9.59;100.00
11001;BME280;5553;48.506;8.870;2023-03-13T06:15:40;95735.84;;;9.60;100.00
11001;BME280;5553;48.506;8.870;2023-03-13T06:18:08;95737.28;;;9.69;100.00
11001;BME280;5553;48.506;8.870;2023-03-13T06:20:36;95739.28;;;9.73;100.00
11001;BME280;5553;48.506;8.870;2023-03-13T06:23:04;95726.34;;;9.72;100.00
11001;BME280;5553;48.506;8.870;2023-03-13T06:25:36;95734.41;;;9.77;100.00
11001;BME280;5553;48.506;8.870;2023-03-13T06:28:04;95730.16;;;9.89;100.00
11001;BME280;5553;48.506;8.870;2023-03-13T06:30:32;95712.13;;;9.93;100.00
11001;BME280;5553;48.506;8.870;2023-03-13T06:33:00;95730.31;;;10.01;100.00
11001;BME280;5553;48.506;8.870;2023-03-13T06:35:29;95723.03;;;10.03;100.00
11001;BME280;5553;48.506;8.870;2023-03-13T06:37:57;95725.66;;;10.03;100.00
11001;BME280;5553;48.506;8.870;2023-03-13T06:40:25;95716.53;;;10.06;100.00
11001;BME280;5553;48.506;8.870;2023-03-13T06:42:57;95726.06;;;10.07;100.00
11001;BME280;5553;48.506;8.870;2023-03-13T06:45:25;95745.53;;;10.06;100.00
11001;BME280;5553;48.506;8.870;2023-03-13T06:47:53;95734.56;;;10.15;100.00
11001;BME280;5553;48.506;8.870;2023-03-13T06:50:21;95750.19;;;10.10;100.00
11001;BME280;5553;48.506;8.870;2023-03-13T06:52:49;95728.47;;;10.15;100.00
11001;BME280;5553;48.506;8.870;2023-03-13T06:55:19;95705.13;;;10.18;100.00
11001;BME280;5553;48.506;8.870;2023-03-13T06:57:49;95716.94;;;10.09;100.00
11001;BME280;5553;48.506;8.870;2023-03-13T07:00:21;95726.66;;;10.15;100.00
11001;BME280;5553;48.506;8.870;2023-03-13T07:02:50;95729.28;;;10.15;100.00
11001;BME280;5553;48.506;8.870;2023-03-13T07:05:18;95722.59;;;10.19;100.00
11001;BME280;5553;48.506;8.870;2023-03-13T07:07:47;95736.16;;;10.23;100.00
11001;BME280;5553;48.506;8.870;2023-03-13T07:10:15;95740.41;;;10.24;100.00
11001;BME280;5553;48.506;8.870;2023-03-13T07:12:44;95739.38;;;10.25;100.00
11001;BME280;5553;48.506;8.870;2023-03-13T07:15:12;95743.69;;;10.26;100.00
11001;BME280;5553;48.506;8.870;2023-03-13T07:17:43;95750.34;;;10.29;100.00
11001;BME280;5553;48.506;8.870;2023-03-13T07:20:12;95743.28;;;10.29;100.00
11001;BME280;5553;48.506;8.870;2023-03-13T07:22:40;95751.34;;;10.34;100.00
11001;BME280;5553;48.506;8.870;2023-03-13T07:25:09;95744.06;;;10.36;100.00
11001;BME280;5553;48.506;8.870;2023-03-13T07:27:37;95738.38;;;10.39;100.00
11001;BME280;5553;48.506;8.870;2023-03-13T07:30:06;95746.06;;;10.41;100.00
11001;BME280;5553;48.506;8.870;2023-03-13T07:32:34;95741.41;;;10.43;100.00
11001;BME280;5553;48.506;8.870;2023-03-13T07:35:06;95752.34;;;10.47;100.00
11001;BME280;5553;48.506;8.870;2023-03-13T07:37:34;95747.22;;;10.52;100.00
11001;BME280;5553;48.506;8.870;2023-03-13T07:40:03;95742.97;;;10.57;100.00
11001;BME280;5553;48.506;8.870;2023-03-13T07:42:33;95744.56;;;10.58;100.00
11001;BME280;5553;48.506;8.870;2023-03-13T07:45:02;95752.59;;;10.77;100.00
11001;BME280;5553;48.506;8.870;2023-03-13T07:47:35;95736.56;;;10.78;100.00
11001;BME280;5553;48.506;8.870;2023-03-13T07:50:08;95738.59;;;10.76;100.00
11001;BME280;5553;48.506;8.870;2023-03-13T07:52:36;95726.66;;;10.74;100.00
11001;BME280;5553;48.506;8.870;2023-03-13T07:55:04;95730.91;;;10.75;100.00
11001;BME280;5553;48.506;8.870;2023-03-13T07:57:33;95736.75;;;10.77;100.00
11001;BME280;5553;48.506;8.870;2023-03-13T08:00:01;95744.47;;;10.78;100.00
11001;BME280;5553;48.506;8.870;2023-03-13T08:02:32;95736.16;;;10.81;100.00
11001;BME280;5553;48.506;8.870;2023-03-13T08:05:00;95744.66;;;10.83;100.00
11001;BME280;5553;48.506;8.870;2023-03-13T08:07:31;95732.47;;;10.82;100.00
11001;BME280;5553;48.506;8.870;2023-03-13T08:10:00;95727.38;;;10.87;100.00
11001;BME280;5553;48.506;8.870;2023-03-13T08:12:28;95709.25;;;10.98;100.00
11001;BME280;5553;48.506;8.870;2023-03-13T08:14:56;95703.72;;;11.06;100.00
11001;BME280;5553;48.506;8.870;2023-03-13T08:17:28;95675.06;;;11.09;100.00
11001;BME280;5553;48.506;8.870;2023-03-13T08:19:56;95687.97;;;11.18;100.00
11001;BME280;5553;48.506;8.870;2023-03-13T08:22:25;95681.69;;;11.19;100.00
11001;BME280;5553;48.506;8.870;2023-03-13T08:24:55;95680.66;;;11.20;100.00
11001;BME280;5553;48.506;8.870;2023-03-13T08:27:24;95681.84;;;11.24;100.00
11001;BME280;5553;48.506;8.870;2023-03-13T08:29:52;95675.75;;;11.23;100.00
11001;BME280;5553;48.506;8.870;2023-03-13T08:32:20;95684.66;;;11.29;100.00
11001;BME280;5553;48.506;8.870;2023-03-13T08:34:48;95675.34;;;11.26;100.00
11001;BME280;5553;48.506;8.870;2023-03-13T08:37:17;95679.22;;;11.24;100.00
11001;BME280;5553;48.506;8.870;2023-03-13T08:39:45;95656.06;;;11.26;100.00
11001;BME280;5553;48.506;8.870;2023-03-13T08:42:16;95666.34;;;11.34;100.00
11001;BME280;5553;48.506;8.870;2023-03-13T08:44:45;95664.25;;;11.43;100.00
11001;BME280;5553;48.506;8.870;2023-03-13T08:47:13;95666.72;;;11.37;100.00
11001;BME280;5553;48.506;8.870;2023-03-13T08:49:42;95668.06;;;11.47;100.00
11001;BME280;5553;48.506;8.870;2023-03-13T08:52:10;95679.13;;;11.55;100.00
11001;BME280;5553;48.506;8.870;2023-03-13T08:54:39;95673.78;;;11.62;100.00
11001;BME280;5553;48.506;8.870;2023-03-13T08:57:07;95685.81;;;11.58;100.00
11001;BME280;5553;48.506;8.870;2023-03-13T08:59:38;95674.63;;;11.62;100.00
11001;BME280;5553;48.506;8.870;2023-03-13T09:02:07;95676.59;;;11.67;100.00
11001;BME280;5553;48.506;8.870;2023-03-13T09:04:36;95689.38;;;11.70;100.00
11001;BME280;5553;48.506;8.870;2023-03-13T09:07:04;95689.25;;;11.83;100.00
11001;BME280;5553;48.506;8.870;2023-03-13T09:09:33;95691.63;;;11.92;100.00
11001;BME280;5553;48.506;8.870;2023-03-13T09:12:01;95684.88;;;11.96;100.00
11001;BME280;5553;48.506;8.870;2023-03-13T09:14:30;95677.69;;;12.21;100.00
11001;BME280;5553;48.506;8.870;2023-03-13T09:17:01;95686.78;;;12.74;100.00
11001;BME280;5553;48.506;8.870;2023-03-13T09:19:29;95669.38;;;13.08;100.00
11001;BME280;5553;48.506;8.870;2023-03-13T09:21:58;95657.41;;;13.05;100.00
11001;BME280;5553;48.506;8.870;2023-03-13T09:24:26;95669.16;;;13.75;100.00
11001;BME280;5553;48.506;8.870;2023-03-13T09:26:55;95667.25;;;13.28;100.00
11001;BME280;5553;48.506;8.870;2023-03-13T09:29:23;95671.66;;;13.35;100.00
11001;BME280;5553;48.506;8.870;2023-03-13T09:31:51;95680.88;;;13.44;100.00
11001;BME280;5553;48.506;8.870;2023-03-13T09:34:22;95665.38;;;13.17;100.00
11001;BME280;5553;48.506;8.870;2023-03-13T09:36:50;95672.44;;;13.23;100.00
11001;BME280;5553;48.506;8.870;2023-03-13T09:39:18;95660.91;;;13.18;100.00
11001;BME280;5553;48.506;8.870;2023-03-13T09:41:52;95660.38;;;13.27;100.00
11001;BME280;5553;48.506;8.870;2023-03-13T09:44:25;95651.09;;;13.18;100.00
11001;BME280;5553;48.506;8.870;2023-03-13T09:46:58;95661.53;;;13.32;100.00
11001;BME280;5553;48.506;8.870;2023-03-13T09:49:34;95651.06;;;13.37;100.00
11001;BME280;5553;48.506;8.870;2023-03-13T09:52:15;95655.88;;;13.63;100.00
11001;BME280;5553;48.506;8.870;2023-03-13T09:54:47;95645.38;;;13.92;100.00
11001;BME280;5553;48.506;8.870;2023-03-13T09:57:25;95618.31;;;14.87;100.00
11001;BME280;5553;48.506;8.870;2023-03-13T10:00:01;95591.19;;;14.85;97.17
11001;BME280;5553;48.506;8.870;2023-03-13T10:02:36;95604.38;;;15.48;98.97
11001;BME280;5553;48.506;8.870;2023-03-13T10:05:13;95586.94;;;15.18;94.83
11001;BME280;5553;48.506;8.870;2023-03-13T10:07:43;95566.53;;;15.24;93.11
11001;BME280;5553;48.506;8.870;2023-03-13T10:10:14;95569.00;;;15.08;93.15
11001;BME280;5553;48.506;8.870;2023-03-13T10:12:45;95573.09;;;14.99;94.81
11001;BME280;5553;48.506;8.870;2023-03-13T10:15:33;95564.03;;;14.66;94.75
11001;BME280;5553;48.506;8.870;2023-03-13T10:18:12;95560.72;;;14.59;95.93
11001;BME280;5553;48.506;8.870;2023-03-13T10:20:47;95548.69;;;15.58;91.71
11001;BME280;5553;48.506;8.870;2023-03-13T10:23:20;95560.06;;;15.92;91.10
11001;BME280;5553;48.506;8.870;2023-03-13T10:25:49;95542.34;;;15.59;90.00
11001;BME280;5553;48.506;8.870;2023-03-13T10:28:18;95526.91;;;15.78;88.38
11001;BME280;5553;48.506;8.870;2023-03-13T10:30:48;95517.38;;;15.82;88.21
11001;BME280;5553;48.506;8.870;2023-03-13T10:33:19;95507.72;;;15.15;88.53
11001;BME280;5553;48.506;8.870;2023-03-13T10:36:03;95512.03;;;15.77;87.81
11001;BME280;5553;48.506;8.870;2023-03-13T10:38:34;95506.56;;;16.38;87.27
11001;BME280;5553;48.506;8.870;2023-03-13T10:41:08;95480.34;;;16.24;85.06
11001;BME280;5553;48.506;8.870;2023-03-13T10:43:50;95474.28;;;15.80;84.31
11001;BME280;5553;48.506;8.870;2023-03-13T10:46:27;95501.72;;;15.85;89.23
11001;BME280;5553;48.506;8.870;2023-03-13T10:49:00;95489.50;;;15.62;88.80
11001;BME280;5553;48.506;8.870;2023-03-13T10:51:38;95469.31;;;15.23;87.72
11001;BME280;5553;48.506;8.870;2023-03-13T10:54:13;95469.16;;;15.12;89.14
11001;BME280;5553;48.506;8.870;2023-03-13T10:56:42;95480.00;;;15.67;89.17
11001;BME280;5553;48.506;8.870;2023-03-13T10:59:22;95477.53;;;15.43;90.38
11001;BME280;5553;48.506;8.870;2023-03-13T11:01:53;95453.38;;;15.23;88.91
11001;BME280;5553;48.506;8.870;2023-03-13T11:04:29;95443.50;;;15.18;89.59
11001;BME280;5553;48.506;8.870;2023-03-13T11:07:02;95451.69;;;15.60;89.25
11001;BME280;5553;48.506;8.870;2023-03-13T11:09:31;95443.59;;;15.50;88.55
11001;BME280;5553;48.506;8.870;2023-03-13T11:12:03;95439.47;;;15.37;86.75
11001;BME280;5553;48.506;8.870;2023-03-13T11:14:32;95434.16;;;15.59;87.09
11001;BME280;5553;48.506;8.870;2023-03-13T11:17:03;95420.88;;;15.59;85.54
11001;BME280;5553;48.506;8.870;2023-03-13T11:19:58;95419.75;;;16.04;85.07
11001;BME280;5553;48.506;8.870;2023-03-13T11:22:52;95392.22;;;16.90;80.94
11001;BME280;5553;48.506;8.870;2023-03-13T11:25:30;95390.38;;;17.64;80.17
11001;BME280;5553;48.506;8.870;2023-03-13T11:28:19;95366.09;;;16.87;78.21
11001;BME280;5553;48.506;8.870;2023-03-13T11:31:08;95382.91;;;17.61;79.72
11001;BME280;5553;48.506;8.870;2023-03-13T11:33:46;95373.06;;;16.98;80.62
11001;BME280;5553;48.506;8.870;2023-03-13T11:36:22;95362.06;;;16.85;79.87
11001;BME280;5553;48.506;8.870;2023-03-13T11:39:04;95372.34;;;18.12;79.47
11001;BME280;5553;48.506;8.870;2023-03-13T11:41:53;95341.13;;;17.92;75.96
11001;BME280;5553;48.506;8.870;2023-03-13T11:44:29;95326.16;;;17.91;74.56
11001;BME280;5553;48.506;8.870;2023-03-13T11:47:19;95312.03;;;18.00;73.04
11001;BME280;5553;48.506;8.870;2023-03-13T11:50:05;95318.69;;;18.08;74.08
11001;BME280;5553;48.506;8.870;2023-03-13T11:52:45;95324.53;;;18.72;73.57
11001;BME280;5553;48.506;8.870;2023-03-13T11:55:27;95285.59;;;18.40;71.86
11001;BME280;5553;48.506;8.870;2023-03-13T11:58:08;95262.34;;;18.40;71.21
11001;BME280;5553;48.506;8.870;2023-03-13T12:00:46;95234.38;;;18.07;70.31
11001;BME280;5553;48.506;8.870;2023-03-13T12:03:20;95288.69;;;18.88;72.58
11001;BME280;5553;48.506;8.870;2023-03-13T12:05:54;95239.97;;;18.26;70.05
11001;BME280;5553;48.506;8.870;2023-03-13T12:08:27;95252.78;;;19.14;70.00
11001;BME280;5553;48.506;8.870;2023-03-13T12:11:06;95237.63;;;18.89;69.38
11001;BME280;5553;48.506;8.870;2023-03-13T12:13:41;95225.38;;;18.83;68.38
11001;BME280;5553;48.506;8.870;2023-03-13T12:16:13;95233.09;;;19.39;67.62
11001;BME280;5553;48.506;8.870;2023-03-13T12:18:45;95207.84;;;19.56;65.35
11001;BME280;5553;48.506;8.870;2023-03-13T12:21:18;95203.47;;;19.99;63.07
11001;BME280;5553;48.506;8.870;2023-03-13T12:23:54;95177.22;;;19.72;61.53
11001;BME280;5553;48.506;8.870;2023-03-13T12:26:34;95179.09;;;18.93;63.64
11001;BME280;5553;48.506;8.870;2023-03-13T12:29:10;95178.19;;;19.18;65.24
11001;BME280;5553;48.506;8.870;2023-03-13T12:31:41;95157.41;;;19.05;64.17
11001;BME280;5553;48.506;8.870;2023-03-13T12:34:15;95163.16;;;19.22;65.39
11001;BME280;5553;48.506;8.870;2023-03-13T12:37:04;95134.88;;;18.72;64.30
11001;BME280;5553;48.506;8.870;2023-03-13T12:39:36;95163.31;;;18.97;66.61
11001;BME280;5553;48.506;8.870;2023-03-13T12:42:22;95148.00;;;19.12;64.85
11001;BME280;5553;48.506;8.870;2023-03-13T12:44:51;95139.59;;;19.29;65.55
11001;BME280;5553;48.506;8.870;2023-03-13T12:47:26;95124.25;;;19.40;64.30
11001;BME280;5553;48.506;8.870;2023-03-13T12:50:10;95107.28;;;19.26;63.98
11001;BME280;5553;48.506;8.870;2023-03-13T12:53:03;95094.97;;;19.25;63.94
11001;BME280;5553;48.506;8.870;2023-03-13T12:55:49;95106.56;;;19.44;64.68
11001;BME280;5553;48.506;8.870;2023-03-13T12:58:28;95078.75;;;19.16;62.74
11001;BME280;5553;48.506;8.870;2023-03-13T13:01:02;95063.66;;;18.52;63.03
11001;BME280;5553;48.506;8.870;2023-03-13T13:03:34;95092.47;;;19.04;65.15
11001;BME280;5553;48.506;8.870;2023-03-13T13:06:06;95062.66;;;19.50;63.00
11001;BME280;5553;48.506;8.870;2023-03-13T13:08:38;95033.81;;;19.76;60.56
11001;BME280;5553;48.506;8.870;2023-03-13T13:17:28;95013.78;;;19.74;60.36
11001;BME280;5553;48.506;8.870;2023-03-13T13:23:28;94994.69;;;19.27;60.69
11001;BME280;5553;48.506;8.870;2023-03-13T13:32:31;94989.47;;;18.88;61.53
11001;BME280;5553;48.506;8.870;2023-03-13T13:35:01;94999.13;;;18.84;62.85
11001;BME280;5553;48.506;8.870;2023-03-13T13:37:31;94992.09;;;18.54;62.51
11001;BME280;5553;48.506;8.870;2023-03-13T13:40:20;94979.69;;;18.73;62.68
11001;BME280;5553;48.506;8.870;2023-03-13T13:42:51;95022.56;;;18.87;65.83
11001;BME280;5553;48.506;8.870;2023-03-13T13:45:23;94990.19;;;18.93;63.32